sensor_id;sensor_type;location;lat;lon;timestamp;pressure;altitude;pressure_sealevel;temperature;humidity
48848;BME280;36611;51.638;5.784;2023-06-14T00:01:14;101353.97;;;30.60;31.91
48848;BME280;36611;51.638;5.784;2023-06-14T00:03:40;101357.81;;;30.59;31.43
48848;BME280;36611;51.638;5.784;2023-06-14T00:06:07;101357.56;;;30.61;31.53
48848;BME280;36611;51.638;5.784;2023-06-14T00:08:34;101358.66;;;30.60;31.58
48848;BME280;36611;51.638;5.784;2023-06-14T00:11:01;101353.97;;;30.60;31.52
48848;BME280;36611;51.638;5.784;2023-06-14T00:13:27;101352.25;;;30.59;31.47
48848;BME280;36611;51.638;5.784;2023-06-14T00:15:54;101364.19;;;30.60;31.26
48848;BME280;36611;51.638;5.784;2023-06-14T00:18:22;101356.97;;;30.59;31.52
48848;BME280;36611;51.638;5.784;2023-06-14T00:20:51;101358.00;;;30.58;31.28
48848;BME280;36611;51.638;5.784;2023-06-14T00:23:20;101358.00;;;30.58;31.38
48848;BME280;36611;51.638;5.784;2023-06-14T00:25:46;101350.75;;;30.57;31.64
48848;BME280;36611;51.638;5.784;2023-06-14T00:28:13;101360.78;;;30.58;31.56
48848;BME280;36611;51.638;5.784;2023-06-14T00:30:40;101357.16;;;30.57;31.36
48848;BME280;36611;51.638;5.784;2023-06-14T00:33:06;101354.59;;;30.56;31.37
48848;BME280;36611;51.638;5.784;2023-06-14T00:35:33;101359.94;;;30.57;31.31
48848;BME280;36611;51.638;5.784;2023-06-14T00:37:59;101361.84;;;30.57;31.50
48848;BME280;36611;51.638;5.784;2023-06-14T00:40:26;101360.16;;;30.56;31.49
48848;BME280;36611;51.638;5.784;2023-06-14T00:42:53;101362.94;;;30.56;31.60
48848;BME280;36611;51.638;5.784;2023-06-14T00:45:19;101364.00;;;30.55;31.50
48848;BME280;36611;51.638;5.784;2023-06-14T00:47:47;101370.41;;;30.55;31.48
48848;BME280;36611;51.638;5.784;2023-06-14T00:50:15;101375.94;;;30.55;31.51
48848;BME280;36611;51.638;5.784;2023-06-14T00:52:42;101369.53;;;30.55;31.77
48848;BME280;36611;51.638;5.784;2023-06-14T00:55:09;101374.25;;;30.54;31.54
48848;BME280;36611;51.638;5.784;2023-06-14T00:57:36;101365.94;;;30.54;31.45
48848;BME280;36611;51.638;5.784;2023-06-14T01:00:05;101367.84;;;30.54;31.22
48848;BME280;36611;51.638;5.784;2023-06-14T01:02:37;101368.69;;;30.54;31.48
48848;BME280;36611;51.638;5.784;2023-06-14T01:05:05;101365.06;;;30.54;31.44
48848;BME280;36611;51.638;5.784;2023-06-14T01:07:55;101372.53;;;30.53;31.49
48848;BME280;36611;51.638;5.784;2023-06-14T01:13:21;101375.53;;;30.52;31.46
48848;BME280;36611;51.638;5.784;2023-06-14T01:15:50;101379.41;;;30.51;31.28
48848;BME280;36611;51.638;5.784;2023-06-14T01:18:17;101379.41;;;30.51;31.38
48848;BME280;36611;51.638;5.784;2023-06-14T01:20:46;101381.09;;;30.52;31.42
48848;BME280;36611;51.638;5.784;2023-06-14T01:23:17;101381.31;;;30.50;31.17
48848;BME280;36611;51.638;5.784;2023-06-14T01:25:44;101372.16;;;30.50;31.46
48848;BME280;36611;51.638;5.784;2023-06-14T01:28:12;101381.31;;;30.50;31.31
48848;BME280;36611;51.638;5.784;2023-06-14T01:30:40;101375.78;;;30.50;31.34
48848;BME280;36611;51.638;5.784;2023-06-14T01:33:17;101378.34;;;30.45;31.46
48848;BME280;36611;51.638;5.784;2023-06-14T01:35:48;101387.50;;;30.46;31.53
48848;BME280;36611;51.638;5.784;2023-06-14T01:38:15;101384.75;;;30.46;31.58
48848;BME280;36611;51.638;5.784;2023-06-14T01:40:44;101383.66;;;30.47;31.41
48848;BME280;36611;51.638;5.784;2023-06-14T01:43:15;101380.91;;;30.47;31.54
48848;BME280;36611;51.638;5.784;2023-06-14T01:45:42;101380.03;;;30.46;31.49
48848;BME280;36611;51.638;5.784;2023-06-14T01:48:11;101384.53;;;30.47;31.30
48848;BME280;36611;51.638;5.784;2023-06-14T01:50:39;101386.44;;;30.47;31.28
48848;BME280;36611;51.638;5.784;2023-06-14T01:53:10;101385.41;;;30.48;31.58
48848;BME280;36611;51.638;5.784;2023-06-14T01:55:37;101388.38;;;30.46;31.52
48848;BME280;36611;51.638;5.784;2023-06-14T01:58:06;101380.91;;;30.47;31.36
48848;BME280;36611;51.638;5.784;2023-06-14T02:00:32;101381.97;;;30.46;31.18
48848;BME280;36611;51.638;5.784;2023-06-14T02:02:59;101380.91;;;30.47;31.35
48848;BME280;36611;51.638;5.784;2023-06-14T02:05:26;101381.97;;;30.46;31.48
48848;BME280;36611;51.638;5.784;2023-06-14T02:07:53;101384.75;;;30.46;31.53
48848;BME280;36611;51.638;5.784;2023-06-14T02:10:20;101376.44;;;30.46;31.41
48848;BME280;36611;51.638;5.784;2023-06-14T02:12:46;101379.19;;;30.46;31.24
48848;BME280;36611;51.638;5.784;2023-06-14T02:15:13;101382.81;;;30.46;31.23
48848;BME280;36611;51.638;5.784;2023-06-14T02:17:44;101374.72;;;30.45;31.30
48848;BME280;36611;51.638;5.784;2023-06-14T02:20:11;101371.97;;;30.45;31.30
48848;BME280;36611;51.638;5.784;2023-06-14T02:22:39;101374.72;;;30.45;31.29
48848;BME280;36611;51.638;5.784;2023-06-14T02:25:07;101373.88;;;30.44;31.43
48848;BME280;36611;51.638;5.784;2023-06-14T02:27:34;101382.19;;;30.44;31.33
48848;BME280;36611;51.638;5.784;2023-06-14T02:30:03;101378.56;;;30.44;31.44
48848;BME280;36611;51.638;5.784;2023-06-14T02:32:31;101379.66;;;30.43;31.52
48848;BME280;36611;51.638;5.784;2023-06-14T02:35:01;101379.66;;;30.43;31.43
48848;BME280;36611;51.638;5.784;2023-06-14T02:37:27;101378.81;;;30.42;31.15
48848;BME280;36611;51.638;5.784;2023-06-14T02:39:55;101383.28;;;30.43;31.48
48848;BME280;36611;51.638;5.784;2023-06-14T02:42:22;101381.56;;;30.42;31.19
48848;BME280;36611;51.638;5.784;2023-06-14T02:44:49;101383.50;;;30.42;31.28
48848;BME280;36611;51.638;5.784;2023-06-14T02:47:18;101381.81;;;30.41;31.45
48848;BME280;36611;51.638;5.784;2023-06-14T02:49:45;101385.41;;;30.41;31.50
48848;BME280;36611;51.638;5.784;2023-06-14T02:52:15;101387.34;;;30.41;31.23
48848;BME280;36611;51.638;5.784;2023-06-14T02:54:42;101381.81;;;30.41;31.25
48848;BME280;36611;51.638;5.784;2023-06-14T02:57:09;101390.13;;;30.41;31.32
48848;BME280;36611;51.638;5.784;2023-06-14T02:59:38;101392.03;;;30.40;31.36
48848;BME280;36611;51.638;5.784;2023-06-14T03:02:05;101391.19;;;30.40;31.23
48848;BME280;36611;51.638;5.784;2023-06-14T03:04:32;101393.13;;;30.39;31.23
48848;BME280;36611;51.638;5.784;2023-06-14T03:07:08;101399.50;;;30.40;31.42
48848;BME280;36611;51.638;5.784;2023-06-14T03:09:41;101397.81;;;30.39;31.39
48848;BME280;36611;51.638;5.784;2023-06-14T03:12:10;101396.13;;;30.38;31.44
48848;BME280;36611;51.638;5.784;2023-06-14T03:14:38;101400.59;;;30.39;31.20
48848;BME280;36611;51.638;5.784;2023-06-14T03:17:06;101401.66;;;30.38;31.22
48848;BME280;36611;51.638;5.784;2023-06-14T03:19:36;101407.19;;;30.38;31.33
48848;BME280;36611;51.638;5.784;2023-06-14T03:22:04;101405.28;;;30.38;31.37
48848;BME280;36611;51.638;5.784;2023-06-14T03:24:32;101409.97;;;30.38;31.35
48848;BME280;36611;51.638;5.784;2023-06-14T03:27:08;101419.34;;;30.36;31.17
48848;BME280;36611;51.638;5.784;2023-06-14T03:29:38;101412.97;;;30.36;31.32
48848;BME280;36611;51.638;5.784;2023-06-14T03:32:06;101411.03;;;30.36;31.44
48848;BME280;36611;51.638;5.784;2023-06-14T03:34:36;101417.66;;;30.35;31.22
48848;BME280;36611;51.638;5.784;2023-06-14T03:37:05;101417.66;;;30.35;31.38
48848;BME280;36611;51.638;5.784;2023-06-14T03:39:33;101425.13;;;30.35;31.32
48848;BME280;36611;51.638;5.784;2023-06-14T03:42:00;101424.06;;;30.36;31.56
48848;BME280;36611;51.638;5.784;2023-06-14T03:44:27;101424.06;;;30.36;31.12
48848;BME280;36611;51.638;5.784;2023-06-14T03:46:54;101428.75;;;30.35;31.37
48848;BME280;36611;51.638;5.784;2023-06-14T03:49:22;101432.59;;;30.34;31.32
48848;BME280;36611;51.638;5.784;2023-06-14T03:51:49;101430.66;;;30.35;31.39
48848;BME280;36611;51.638;5.784;2023-06-14T03:54:20;101426.19;;;30.34;31.40
48848;BME280;36611;51.638;5.784;2023-06-14T03:56:52;101428.13;;;30.33;31.23
48848;BME280;36611;51.638;5.784;2023-06-14T03:59:18;101434.50;;;30.34;31.25
48848;BME280;36611;51.638;5.784;2023-06-14T04:01:45;101430.91;;;30.33;31.23
48848;BME280;36611;51.638;5.784;2023-06-14T04:04:14;101434.50;;;30.34;31.46
48848;BME280;36611;51.638;5.784;2023-06-14T04:06:43;101430.91;;;30.33;31.13
48848;BME280;36611;51.638;5.784;2023-06-14T04:09:10;101435.59;;;30.33;31.45
48848;BME280;36611;51.638;5.784;2023-06-14T04:11:37;101441.13;;;30.33;31.41
48848;BME280;36611;51.638;5.784;2023-06-14T04:14:03;101439.44;;;30.32;31.25
48848;BME280;36611;51.638;5.784;2023-06-14T04:16:30;101438.59;;;30.31;31.30
48848;BME280;36611;51.638;5.784;2023-06-14T04:18:58;101444.97;;;30.32;31.36
48848;BME280;36611;51.638;5.784;2023-06-14T04:21:25;101447.75;;;30.32;31.18
48848;BME280;36611;51.638;5.784;2023-06-14T04:23:56;101447.75;;;30.32;31.41
48848;BME280;36611;51.638;5.784;2023-06-14T04:26:26;101451.38;;;30.32;31.40
48848;BME280;36611;51.638;5.784;2023-06-14T04:28:56;101449.66;;;30.31;31.45
48848;BME280;36611;51.638;5.784;2023-06-14T04:31:29;101457.97;;;30.31;31.25
48848;BME280;36611;51.638;5.784;2023-06-14T04:34:00;101453.28;;;30.32;31.23
48848;BME280;36611;51.638;5.784;2023-06-14T04:36:27;101449.66;;;30.31;31.41
48848;BME280;36611;51.638;5.784;2023-06-14T04:38:54;101454.13;;;30.32;31.38
48848;BME280;36611;51.638;5.784;2023-06-14T04:41:24;101460.75;;;30.31;31.35
48848;BME280;36611;51.638;5.784;2023-06-14T04:43:55;101458.84;;;30.32;31.38
48848;BME280;36611;51.638;5.784;2023-06-14T04:46:23;101456.91;;;30.32;31.47
48848;BME280;36611;51.638;5.784;2023-06-14T04:48:50;101461.59;;;30.32;31.30
48848;BME280;36611;51.638;5.784;2023-06-14T04:51:17;101460.75;;;30.31;31.23
48848;BME280;36611;51.638;5.784;2023-06-14T04:53:47;101457.97;;;30.31;31.42
48848;BME280;36611;51.638;5.784;2023-06-14T04:56:16;101459.69;;;30.32;31.59
48848;BME280;36611;51.638;5.784;2023-06-14T04:58:43;101462.44;;;30.32;31.40
48848;BME280;36611;51.638;5.784;2023-06-14T05:01:10;101465.22;;;30.32;31.21
48848;BME280;36611;51.638;5.784;2023-06-14T05:03:37;101464.38;;;30.32;31.50
48848;BME280;36611;51.638;5.784;2023-06-14T05:06:04;101466.06;;;30.33;31.33
48848;BME280;36611;51.638;5.784;2023-06-14T05:08:33;101469.06;;;30.31;31.02
48848;BME280;36611;51.638;5.784;2023-06-14T05:10:59;101479.06;;;30.32;31.58
48848;BME280;36611;51.638;5.784;2023-06-14T05:13:26;101473.53;;;30.32;31.39
48848;BME280;36611;51.638;5.784;2023-06-14T05:15:54;101474.59;;;30.31;31.38
48848;BME280;36611;51.638;5.784;2023-06-14T05:18:21;101481.84;;;30.32;31.18
48848;BME280;36611;51.638;5.784;2023-06-14T05:20:48;101479.06;;;30.32;31.40
48848;BME280;36611;51.638;5.784;2023-06-14T05:23:14;101484.63;;;30.32;31.47
48848;BME280;36611;51.638;5.784;2023-06-14T05:25:45;101489.94;;;30.34;31.17
48848;BME280;36611;51.638;5.784;2023-06-14T05:28:12;101488.47;;;30.31;31.14
48848;BME280;36611;51.638;5.784;2023-06-14T05:30:39;101488.25;;;30.33;31.31
48848;BME280;36611;51.638;5.784;2023-06-14T05:33:08;101492.94;;;30.32;31.55
48848;BME280;36611;51.638;5.784;2023-06-14T05:35:35;101487.38;;;30.32;31.48
48848;BME280;36611;51.638;5.784;2023-06-14T05:38:02;101491.00;;;30.33;31.22
48848;BME280;36611;51.638;5.784;2023-06-14T05:40:28;101491.00;;;30.33;31.33
48848;BME280;36611;51.638;5.784;2023-06-14T05:42:55;101492.94;;;30.32;31.44
48848;BME280;36611;51.638;5.784;2023-06-14T05:45:22;101492.94;;;30.32;31.17
48848;BME280;36611;51.638;5.784;2023-06-14T05:47:48;101505.72;;;30.33;31.40
48848;BME280;36611;51.638;5.784;2023-06-14T05:50:15;101502.94;;;30.33;31.33
48848;BME280;36611;51.638;5.784;2023-06-14T05:52:42;101500.19;;;30.33;31.30
48848;BME280;36611;51.638;5.784;2023-06-14T05:55:09;101509.34;;;30.34;31.47
48848;BME280;36611;51.638;5.784;2023-06-14T05:57:39;101512.09;;;30.34;31.51
48848;BME280;36611;51.638;5.784;2023-06-14T06:00:07;101511.25;;;30.33;31.40
48848;BME280;36611;51.638;5.784;2023-06-14T06:02:43;101519.56;;;30.33;31.46
48848;BME280;36611;51.638;5.784;2023-06-14T06:05:11;101516.56;;;30.35;31.63
48848;BME280;36611;51.638;5.784;2023-06-14T06:07:39;101514.03;;;30.33;31.39
48848;BME280;36611;51.638;5.784;2023-06-14T06:10:06;101514.88;;;30.34;31.29
48848;BME280;36611;51.638;5.784;2023-06-14T06:12:33;101514.88;;;30.34;31.35
48848;BME280;36611;51.638;5.784;2023-06-14T06:15:00;101524.03;;;30.34;31.35
48848;BME280;36611;51.638;5.784;2023-06-14T06:17:27;101515.72;;;30.34;31.32
48848;BME280;36611;51.638;5.784;2023-06-14T06:20:08;101525.97;;;30.34;31.21
48848;BME280;36611;51.638;5.784;2023-06-14T06:22:36;101526.81;;;30.34;31.51
48848;BME280;36611;51.638;5.784;2023-06-14T06:25:02;101522.97;;;30.35;31.46
48848;BME280;36611;51.638;5.784;2023-06-14T06:27:29;101524.03;;;30.34;31.21
48848;BME280;36611;51.638;5.784;2023-06-14T06:29:55;101523.81;;;30.36;31.44
48848;BME280;36611;51.638;5.784;2023-06-14T06:32:22;101529.38;;;30.36;31.34
48848;BME280;36611;51.638;5.784;2023-06-14T06:34:49;101533.22;;;30.35;31.23
48848;BME280;36611;51.638;5.784;2023-06-14T06:37:15;101533.22;;;30.35;31.38
48848;BME280;36611;51.638;5.784;2023-06-14T06:39:42;101536.84;;;30.35;31.39
48848;BME280;36611;51.638;5.784;2023-06-14T06:42:09;101540.66;;;30.34;31.33
48848;BME280;36611;51.638;5.784;2023-06-14T06:44:36;101539.59;;;30.35;31.49
48848;BME280;36611;51.638;5.784;2023-06-14T06:47:03;101541.31;;;30.36;31.27
48848;BME280;36611;51.638;5.784;2023-06-14T06:49:29;101552.38;;;30.36;31.24
48848;BME280;36611;51.638;5.784;2023-06-14T06:52:04;101548.53;;;30.38;31.25
48848;BME280;36611;51.638;5.784;2023-06-14T06:54:31;101546.84;;;30.36;31.16
48848;BME280;36611;51.638;5.784;2023-06-14T06:56:59;101552.38;;;30.36;31.16
48848;BME280;36611;51.638;5.784;2023-06-14T06:59:26;101552.38;;;30.36;31.37
48848;BME280;36611;51.638;5.784;2023-06-14T07:01:52;101549.63;;;30.36;31.00
48848;BME280;36611;51.638;5.784;2023-06-14T07:04:20;101551.53;;;30.36;31.18
48848;BME280;36611;51.638;5.784;2023-06-14T07:06:47;101551.53;;;30.36;31.07
48848;BME280;36611;51.638;5.784;2023-06-14T07:09:14;101565.16;;;30.38;31.23
48848;BME280;36611;51.638;5.784;2023-06-14T07:11:43;101565.16;;;30.38;31.09
48848;BME280;36611;51.638;5.784;2023-06-14T07:14:10;101564.31;;;30.37;30.84
48848;BME280;36611;51.638;5.784;2023-06-14T07:16:37;101565.16;;;30.38;31.17
48848;BME280;36611;51.638;5.784;2023-06-14T07:19:04;101570.72;;;30.38;30.95
48848;BME280;36611;51.638;5.784;2023-06-14T07:21:31;101570.72;;;30.38;30.83
48848;BME280;36611;51.638;5.784;2023-06-14T07:23:57;101566.03;;;30.38;30.84
48848;BME280;36611;51.638;5.784;2023-06-14T07:26:24;101567.94;;;30.38;31.18
48848;BME280;36611;51.638;5.784;2023-06-14T07:28:51;101571.56;;;30.38;30.92
48848;BME280;36611;51.638;5.784;2023-06-14T07:31:19;101580.72;;;30.39;30.94
48848;BME280;36611;51.638;5.784;2023-06-14T07:33:45;101572.41;;;30.39;31.06
48848;BME280;36611;51.638;5.784;2023-06-14T07:36:12;101572.41;;;30.39;30.71
48848;BME280;36611;51.638;5.784;2023-06-14T07:38:39;101578.81;;;30.39;30.83
48848;BME280;36611;51.638;5.784;2023-06-14T07:41:07;101578.81;;;30.39;30.99
48848;BME280;36611;51.638;5.784;2023-06-14T07:43:34;101583.50;;;30.39;30.73
48848;BME280;36611;51.638;5.784;2023-06-14T07:46:00;101587.97;;;30.40;30.87
48848;BME280;36611;51.638;5.784;2023-06-14T07:48:33;101577.97;;;30.39;30.78
48848;BME280;36611;51.638;5.784;2023-06-14T07:51:00;101586.06;;;30.40;30.84
48848;BME280;36611;51.638;5.784;2023-06-14T07:53:28;101579.66;;;30.40;30.58
48848;BME280;36611;51.638;5.784;2023-06-14T07:55:54;101583.28;;;30.40;30.66
48848;BME280;36611;51.638;5.784;2023-06-14T07:58:21;101588.81;;;30.40;30.43
48848;BME280;36611;51.638;5.784;2023-06-14T08:00:48;101589.66;;;30.41;30.70
48848;BME280;36611;51.638;5.784;2023-06-14T08:03:14;101589.66;;;30.41;30.54
48848;BME280;36611;51.638;5.784;2023-06-14T08:05:42;101587.75;;;30.41;30.59
48848;BME280;36611;51.638;5.784;2023-06-14T08:08:08;101589.66;;;30.41;30.61
48848;BME280;36611;51.638;5.784;2023-06-14T08:10:35;101594.13;;;30.42;30.58
48848;BME280;36611;51.638;5.784;2023-06-14T08:13:01;101596.91;;;30.42;30.53
48848;BME280;36611;51.638;5.784;2023-06-14T08:15:28;101602.47;;;30.42;30.49
48848;BME280;36611;51.638;5.784;2023-06-14T08:17:55;101605.22;;;30.42;30.60
48848;BME280;36611;51.638;5.784;2023-06-14T08:20:21;101597.75;;;30.42;30.54
48848;BME280;36611;51.638;5.784;2023-06-14T08:22:48;101595.00;;;30.42;30.40
48848;BME280;36611;51.638;5.784;2023-06-14T08:25:15;101600.53;;;30.42;30.21
48848;BME280;36611;51.638;5.784;2023-06-14T08:27:42;101602.47;;;30.42;30.48
48848;BME280;36611;51.638;5.784;2023-06-14T08:30:09;101598.63;;;30.43;30.29
48848;BME280;36611;51.638;5.784;2023-06-14T08:32:36;101612.47;;;30.43;30.40
48848;BME280;36611;51.638;5.784;2023-06-14T08:35:03;101610.31;;;30.45;30.17
48848;BME280;36611;51.638;5.784;2023-06-14T08:37:32;101613.31;;;30.43;30.41
48848;BME280;36611;51.638;5.784;2023-06-14T08:40:00;101603.31;;;30.42;30.10
48848;BME280;36611;51.638;5.784;2023-06-14T08:42:28;101612.47;;;30.43;30.31
48848;BME280;36611;51.638;5.784;2023-06-14T08:44:58;101615.25;;;30.43;29.99
48848;BME280;36611;51.638;5.784;2023-06-14T08:47:25;101603.94;;;30.44;30.04
48848;BME280;36611;51.638;5.784;2023-06-14T08:49:54;101604.78;;;30.45;30.08
48848;BME280;36611;51.638;5.784;2023-06-14T08:52:25;101603.94;;;30.44;30.30
48848;BME280;36611;51.638;5.784;2023-06-14T08:54:56;101595.84;;;30.43;30.21
48848;BME280;36611;51.638;5.784;2023-06-14T08:57:26;101596.69;;;30.43;30.24
48848;BME280;36611;51.638;5.784;2023-06-14T08:59:56;101600.31;;;30.44;30.26
48848;BME280;36611;51.638;5.784;2023-06-14T09:02:24;101595.84;;;30.43;30.26
48848;BME280;36611;51.638;5.784;2023-06-14T09:04:51;101602.88;;;30.45;30.04
48848;BME280;36611;51.638;5.784;2023-06-14T09:07:18;101602.00;;;30.45;30.32
48848;BME280;36611;51.638;5.784;2023-06-14T09:09:44;101596.47;;;30.45;30.28
48848;BME280;36611;51.638;5.784;2023-06-14T09:12:31;101599.25;;;30.45;30.12
48848;BME280;36611;51.638;5.784;2023-06-14T09:14:58;101599.25;;;30.45;30.17
48848;BME280;36611;51.638;5.784;2023-06-14T09:17:24;101600.09;;;30.45;30.01
48848;BME280;36611;51.638;5.784;2023-06-14T09:19:51;101605.63;;;30.45;29.84
48848;BME280;36611;51.638;5.784;2023-06-14T09:22:17;101602.88;;;30.45;30.17
48848;BME280;36611;51.638;5.784;2023-06-14T09:24:44;101602.88;;;30.45;30.28
48848;BME280;36611;51.638;5.784;2023-06-14T09:27:15;101610.97;;;30.47;30.06
48848;BME280;36611;51.638;5.784;2023-06-14T09:29:42;101609.25;;;30.46;30.15
48848;BME280;36611;51.638;5.784;2023-06-14T09:32:09;101607.34;;;30.46;30.11
48848;BME280;36611;51.638;5.784;2023-06-14T09:34:36;101600.09;;;30.45;30.10
48848;BME280;36611;51.638;5.784;2023-06-14T09:37:02;101615.66;;;30.46;29.81
48848;BME280;36611;51.638;5.784;2023-06-14T09:39:29;101600.94;;;30.46;30.19
48848;BME280;36611;51.638;5.784;2023-06-14T09:41:56;101615.66;;;30.46;29.83
48848;BME280;36611;51.638;5.784;2023-06-14T09:44:23;101602.63;;;30.47;30.04
48848;BME280;36611;51.638;5.784;2023-06-14T09:46:56;101612.88;;;30.46;30.07
48848;BME280;36611;51.638;5.784;2023-06-14T09:49:22;101605.41;;;30.47;29.87
48848;BME280;36611;51.638;5.784;2023-06-14T09:51:50;101602.63;;;30.47;30.06
48848;BME280;36611;51.638;5.784;2023-06-14T09:54:22;101600.53;;;30.49;29.96
48848;BME280;36611;51.638;5.784;2023-06-14T09:56:51;101601.59;;;30.48;30.22
48848;BME280;36611;51.638;5.784;2023-06-14T09:59:22;101597.09;;;30.47;30.11
48848;BME280;36611;51.638;5.784;2023-06-14T10:01:57;101607.16;;;30.48;30.13
48848;BME280;36611;51.638;5.784;2023-06-14T10:04:27;101602.63;;;30.47;30.07
48848;BME280;36611;51.638;5.784;2023-06-14T10:06:57;101599.88;;;30.47;30.06
48848;BME280;36611;51.638;5.784;2023-06-14T10:09:24;101597.97;;;30.47;30.08
48848;BME280;36611;51.638;5.784;2023-06-14T10:11:51;101598.84;;;30.48;30.26
48848;BME280;36611;51.638;5.784;2023-06-14T10:14:18;101604.38;;;30.48;29.74
48848;BME280;36611;51.638;5.784;2023-06-14T10:17:06;101593.28;;;30.48;30.14
48848;BME280;36611;51.638;5.784;2023-06-14T10:22:09;101598.84;;;30.48;30.01
48848;BME280;36611;51.638;5.784;2023-06-14T10:24:42;101602.44;;;30.48;29.90
48848;BME280;36611;51.638;5.784;2023-06-14T10:27:10;101598.84;;;30.48;29.94
48848;BME280;36611;51.638;5.784;2023-06-14T10:32:25;101586.00;;;30.47;30.04
48848;BME280;36611;51.638;5.784;2023-06-14T10:35:00;101588.78;;;30.47;29.69
48848;BME280;36611;51.638;5.784;2023-06-14T10:37:27;101597.09;;;30.47;30.00
48848;BME280;36611;51.638;5.784;2023-06-14T10:39:54;101596.25;;;30.46;29.92
48848;BME280;36611;51.638;5.784;2023-06-14T10:42:21;101591.38;;;30.48;29.90
48848;BME280;36611;51.638;5.784;2023-06-14T10:44:50;101600.75;;;30.47;30.02
48848;BME280;36611;51.638;5.784;2023-06-14T10:50:02;101595.22;;;30.47;29.86
48848;BME280;36611;51.638;5.784;2023-06-14T10:52:33;101591.56;;;30.47;30.14
48848;BME280;36611;51.638;5.784;2023-06-14T10:55:12;101593.28;;;30.48;29.96
48848;BME280;36611;51.638;5.784;2023-06-14T10:57:52;101595.22;;;30.47;29.76
48848;BME280;36611;51.638;5.784;2023-06-14T11:00:23;101607.34;;;30.46;29.97
48848;BME280;36611;51.638;5.784;2023-06-14T11:05:58;101605.63;;;30.45;29.86
48848;BME280;36611;51.638;5.784;2023-06-14T11:11:10;101601.16;;;30.44;29.69
48848;BME280;36611;51.638;5.784;2023-06-14T11:13:42;101600.09;;;30.45;29.98
48848;BME280;36611;51.638;5.784;2023-06-14T11:16:17;101593.47;;;30.46;29.84
48848;BME280;36611;51.638;5.784;2023-06-14T11:18:46;101596.47;;;30.45;29.95
48848;BME280;36611;51.638;5.784;2023-06-14T11:21:16;101601.78;;;30.46;30.07
48848;BME280;36611;51.638;5.784;2023-06-14T11:23:51;101600.94;;;30.46;30.03
48848;BME280;36611;51.638;5.784;2023-06-14T11:26:28;101598.16;;;30.46;29.93
48848;BME280;36611;51.638;5.784;2023-06-14T11:28:59;101598.16;;;30.46;29.89
48848;BME280;36611;51.638;5.784;2023-06-14T11:31:27;101606.50;;;30.46;29.91
48848;BME280;36611;51.638;5.784;2023-06-14T11:33:58;101600.09;;;30.45;29.88
48848;BME280;36611;51.638;5.784;2023-06-14T11:36:30;101594.31;;;30.47;30.04
48848;BME280;36611;51.638;5.784;2023-06-14T11:38:58;101594.31;;;30.47;29.84
48848;BME280;36611;51.638;5.784;2023-06-14T11:41:25;101592.63;;;30.46;30.02
48848;BME280;36611;51.638;5.784;2023-06-14T11:43:53;101590.69;;;30.46;30.08
48848;BME280;36611;51.638;5.784;2023-06-14T11:46:20;101584.31;;;30.46;29.84
48848;BME280;36611;51.638;5.784;2023-06-14T11:48:51;101586.00;;;30.47;29.80
48848;BME280;36611;51.638;5.784;2023-06-14T11:51:19;101589.00;;;30.45;30.03
48848;BME280;36611;51.638;5.784;2023-06-14T11:53:46;101589.84;;;30.46;30.02
48848;BME280;36611;51.638;5.784;2023-06-14T11:56:13;101593.47;;;30.46;30.07
48848;BME280;36611;51.638;5.784;2023-06-14T11:58:43;101598.16;;;30.46;29.81
48848;BME280;36611;51.638;5.784;2023-06-14T12:01:14;101593.47;;;30.46;29.85
48848;BME280;36611;51.638;5.784;2023-06-14T12:03:50;101588.78;;;30.47;29.83
48848;BME280;36611;51.638;5.784;2023-06-14T12:06:29;101593.47;;;30.46;29.92
48848;BME280;36611;51.638;5.784;2023-06-14T12:09:00;101595.41;;;30.46;29.96
48848;BME280;36611;51.638;5.784;2023-06-14T12:11:34;101594.31;;;30.47;30.23
48848;BME280;36611;51.638;5.784;2023-06-14T12:14:03;101583.47;;;30.45;30.10
48848;BME280;36611;51.638;5.784;2023-06-14T12:16:34;101593.47;;;30.46;29.85
48848;BME280;36611;51.638;5.784;2023-06-14T12:19:28;101585.16;;;30.46;29.92
48848;BME280;36611;51.638;5.784;2023-06-14T12:21:59;101581.53;;;30.46;30.06
48848;BME280;36611;51.638;5.784;2023-06-14T12:24:29;101581.53;;;30.46;30.13
48848;BME280;36611;51.638;5.784;2023-06-14T12:26:59;101595.41;;;30.46;30.06
48848;BME280;36611;51.638;5.784;2023-06-14T12:29:32;101595.41;;;30.46;30.07
48848;BME280;36611;51.638;5.784;2023-06-14T12:31:58;101600.94;;;30.46;30.02
48848;BME280;36611;51.638;5.784;2023-06-14T12:34:26;101594.56;;;30.45;29.95
48848;BME280;36611;51.638;5.784;2023-06-14T12:36:54;101592.63;;;30.46;29.78
48848;BME280;36611;51.638;5.784;2023-06-14T12:39:20;101587.09;;;30.46;29.93
48848;BME280;36611;51.638;5.784;2023-06-14T12:41:47;101589.84;;;30.46;29.96
48848;BME280;36611;51.638;5.784;2023-06-14T12:44:15;101581.53;;;30.46;30.13
48848;BME280;36611;51.638;5.784;2023-06-14T12:46:42;101587.09;;;30.46;29.96
48848;BME280;36611;51.638;5.784;2023-06-14T12:49:11;101586.00;;;30.47;30.13
48848;BME280;36611;51.638;5.784;2023-06-14T12:51:41;101591.56;;;30.47;29.92
48848;BME280;36611;51.638;5.784;2023-06-14T12:54:07;101594.31;;;30.47;30.29
48848;BME280;36611;51.638;5.784;2023-06-14T12:56:34;101599.03;;;30.46;30.14
48848;BME280;36611;51.638;5.784;2023-06-14T12:59:01;101591.56;;;30.47;30.12
48848;BME280;36611;51.638;5.784;2023-06-14T13:01:27;101589.84;;;30.46;30.11
48848;BME280;36611;51.638;5.784;2023-06-14T13:03:54;101586.00;;;30.47;30.01
48848;BME280;36611;51.638;5.784;2023-06-14T13:06:21;101590.69;;;30.46;29.90
48848;BME280;36611;51.638;5.784;2023-06-14T13:08:51;101593.47;;;30.46;30.26
48848;BME280;36611;51.638;5.784;2023-06-14T13:11:21;101583.25;;;30.47;30.08
48848;BME280;36611;51.638;5.784;2023-06-14T13:13:47;101576.84;;;30.46;30.13